createdAt,value
2019-04-24T00:00:11.626Z,18.1
2019-04-24T00:02:01.605Z,18.1
2019-04-24T00:02:53.598Z,18.11
2019-04-24T00:04:02.644Z,18.1
2019-04-24T00:05:08.638Z,18.17
2019-04-24T00:06:51.883Z,18.11
2019-04-24T00:07:49.471Z,18.07
2019-04-24T00:08:44.131Z,17.92
2019-04-24T00:09:36.736Z,17.84
2019-04-24T00:10:47.555Z,17.9
2019-04-24T00:12:40.328Z,17.77
2019-04-24T00:17:52.514Z,17.77
2019-04-24T00:19:25.789Z,17.58
2019-04-24T00:20:26.950Z,17.74
2019-04-24T00:21:26.509Z,17.77
2019-04-24T00:22:17.967Z,17.75
2019-04-24T00:26:19.215Z,17.74
2019-04-24T00:28:15.845Z,17.62
2019-04-24T00:30:08.181Z,17.55
2019-04-24T00:32:08.975Z,17.52
2019-04-24T00:33:14.473Z,17.52
2019-04-24T00:35:07.673Z,17.41
2019-04-24T00:36:25.430Z,17.38
2019-04-24T00:37:06.890Z,17.38
2019-04-24T00:38:12.009Z,17.36
2019-04-24T00:40:07.909Z,17.49
2019-04-24T00:42:01.751Z,17.37
2019-04-24T00:43:07.305Z,17.22
2019-04-24T00:43:59.536Z,17.21
2019-04-24T00:44:55.714Z,17.38
2019-04-24T00:45:56.394Z,17.34
2019-04-24T00:46:58.727Z,17.22
2019-04-24T00:47:58.529Z,17.12
2019-04-24T00:49:56.535Z,16.89
2019-04-24T00:50:54.216Z,16.89
2019-04-24T00:51:41.900Z,16.88
2019-04-24T00:53:01.837Z,17.03
2019-04-24T00:54:51.908Z,17.14
2019-04-24T00:55:43.055Z,17.26
2019-04-24T00:56:38.652Z,17.22
2019-04-24T00:57:38.974Z,17.23
2019-04-24T00:58:33.739Z,17.26
2019-04-24T00:59:34.741Z,17.25
2019-04-24T01:00:40.457Z,17.15
2019-04-24T01:01:42.041Z,17.03
2019-04-24T01:02:24.521Z,17.16
2019-04-24T01:03:37.504Z,17.19
2019-04-24T01:05:29.905Z,17.22
2019-04-24T01:08:19.029Z,17.14
2019-04-24T01:09:22.107Z,17.12
2019-04-24T01:11:13.390Z,17.11
2019-04-24T01:12:27.747Z,16.98
2019-04-24T01:13:14.373Z,16.83
2019-04-24T01:14:12.192Z,16.83
2019-04-24T01:17:21.336Z,17.04
2019-04-24T01:18:06.047Z,17.12
2019-04-24T01:19:02.958Z,17.12
2019-04-24T01:20:20.471Z,17.01
2019-04-24T01:21:06.467Z,17.06
2019-04-24T01:24:06.735Z,16.81
2019-04-24T01:25:12.263Z,16.81
2019-04-24T01:25:59.408Z,16.78
2019-04-24T01:28:02.062Z,16.89
2019-04-24T01:28:52.676Z,16.75
2019-04-24T01:30:09.269Z,16.94
2019-04-24T01:31:41.967Z,16.75
2019-04-24T01:32:52.804Z,16.68
2019-04-24T01:33:40.485Z,16.57
2019-04-24T01:35:46.192Z,16.41
2019-04-24T01:36:48.897Z,16.41
2019-04-24T01:37:42.562Z,16.42
2019-04-24T01:38:39.537Z,16.45
2019-04-24T01:40:37.596Z,16.66
2019-04-24T01:41:32.795Z,16.7
2019-04-24T01:43:33.566Z,16.82
2019-04-24T01:44:34.030Z,16.79
2019-04-24T01:45:45.161Z,16.81
2019-04-24T01:46:26.449Z,16.75
2019-04-24T01:47:27.644Z,16.71
2019-04-24T01:49:29.523Z,16.64
2019-04-24T01:50:29.189Z,16.57
2019-04-24T01:51:38.947Z,16.5
2019-04-24T01:53:17.913Z,16.67
2019-04-24T01:54:20.023Z,16.78
2019-04-24T01:55:11.385Z,16.68
2019-04-24T01:56:13.534Z,16.56
2019-04-24T01:58:11.850Z,16.63
2019-04-24T01:59:19.569Z,16.57
2019-04-24T02:02:09.763Z,16.53
2019-04-24T02:02:58.896Z,16.43
2019-04-24T02:04:01.652Z,16.28
2019-04-24T02:05:00.073Z,16.24
2019-04-24T02:06:09.314Z,16.28
2019-04-24T02:07:08.430Z,16.3
2019-04-24T02:08:10.995Z,16.49
2019-04-24T02:08:59.182Z,16.45
2019-04-24T02:10:09.966Z,16.52
2019-04-24T02:11:49.429Z,16.56
2019-04-24T02:14:53.088Z,16.45
2019-04-24T02:15:41.640Z,16.52
2019-04-24T02:16:42.001Z,16.42
2019-04-24T02:17:57.959Z,16.45
2019-04-24T02:18:42.077Z,16.46
2019-04-24T02:19:34.885Z,16.57
2019-04-24T02:21:40.352Z,16.58
2019-04-24T02:22:47.907Z,16.52
2019-04-24T02:23:32.821Z,16.6
2019-04-24T02:24:35.338Z,16.63
2019-04-24T02:27:33.826Z,16.67
2019-04-24T02:29:35.414Z,16.58
2019-04-24T02:30:49.548Z,16.64
2019-04-24T02:34:18.144Z,16.53
2019-04-24T02:35:36.639Z,16.42
2019-04-24T02:38:39.409Z,16.52
2019-04-24T02:40:28.182Z,16.41
2019-04-24T02:43:20.653Z,16.56
2019-04-24T02:44:34.562Z,16.67
2019-04-24T02:45:12.332Z,16.68
2019-04-24T02:46:13.259Z,16.63
2019-04-24T02:48:09.512Z,16.53
2019-04-24T02:50:05.569Z,16.73
2019-04-24T02:52:10.932Z,16.6
2019-04-24T02:53:00.757Z,16.49
2019-04-24T02:56:03.350Z,16.2
2019-04-24T02:57:55.720Z,16.14
2019-04-24T03:00:09.292Z,16.07
2019-04-24T03:02:04.659Z,16.02
2019-04-24T03:04:45.238Z,16.07
2019-04-24T03:06:50.022Z,16.04
2019-04-24T03:07:58.338Z,15.94
2019-04-24T03:09:57.993Z,15.75
2019-04-24T03:11:44.158Z,15.83
2019-04-24T03:14:48.298Z,15.65
2019-04-24T03:15:33.701Z,15.74
2019-04-24T03:16:47.889Z,15.75
2019-04-24T03:18:26.359Z,15.92
2019-04-24T03:20:36.710Z,16
2019-04-24T03:21:27.877Z,15.89
2019-04-24T03:22:33.973Z,15.97
2019-04-24T03:24:23.748Z,16.05
2019-04-24T03:26:51.587Z,15.96
2019-04-24T03:28:07.858Z,16.08
2019-04-24T03:31:26.485Z,15.89
2019-04-24T03:32:36.373Z,15.94
2019-04-24T03:36:27.190Z,15.87
2019-04-24T03:43:20.833Z,15.72
2019-04-24T03:44:18.678Z,15.68
2019-04-24T03:46:44.843Z,15.84
2019-04-24T03:48:49.068Z,15.76
2019-04-24T03:49:47.683Z,15.78
2019-04-24T03:52:27.237Z,15.82
2019-04-24T03:54:38.300Z,15.84
2019-04-24T03:55:42.114Z,15.83
2019-04-24T03:57:53.532Z,15.76
2019-04-24T03:58:37.564Z,15.84
2019-04-24T04:01:26.678Z,16
2019-04-24T04:05:22.444Z,15.93
2019-04-24T04:06:27.346Z,15.86
2019-04-24T04:07:08.281Z,15.82
2019-04-24T04:08:25.833Z,15.89
2019-04-24T04:10:19.370Z,15.75
2019-04-24T04:11:19.368Z,15.84
2019-04-24T04:14:31.251Z,15.64
2019-04-24T04:15:18.045Z,15.74
2019-04-24T04:17:05.169Z,15.84
2019-04-24T04:18:11.605Z,15.84
2019-04-24T04:19:02.162Z,15.82
2019-04-24T04:19:58.545Z,15.87
2019-04-24T04:20:58.596Z,15.86
2019-04-24T04:22:14.926Z,15.74
2019-04-24T04:27:52.567Z,15.72
2019-04-24T04:29:45.252Z,15.97
2019-04-24T04:30:55.952Z,15.92
2019-04-24T04:34:03.601Z,15.92
2019-04-24T04:34:39.361Z,16.08
2019-04-24T04:35:36.182Z,15.97
2019-04-24T04:37:36.197Z,16
2019-04-24T04:39:39.888Z,16.08
2019-04-24T04:40:44.900Z,16.08
2019-04-24T04:42:36.821Z,16.04
2019-04-24T04:43:55.943Z,16.11
2019-04-24T04:44:35.623Z,16.09
2019-04-24T04:48:35.019Z,15.94
2019-04-24T04:50:24.869Z,16.02
2019-04-24T04:52:11.841Z,16.14
2019-04-24T04:53:27.536Z,16.15
2019-04-24T04:54:23.948Z,16.23
2019-04-24T04:57:11.608Z,16.34
2019-04-24T04:59:03.751Z,16.41
2019-04-24T05:04:00.428Z,16.5
2019-04-24T05:06:14.661Z,16.7
2019-04-24T05:07:17.959Z,16.86
2019-04-24T05:14:53.256Z,17
2019-04-24T05:15:39.580Z,16.97
2019-04-24T05:18:53.387Z,17.11
2019-04-24T05:20:38.453Z,17.36
2019-04-24T05:21:50.414Z,17.44
2019-04-24T05:22:25.730Z,17.46
2019-04-24T05:24:32.318Z,17.55
2019-04-24T05:25:35.692Z,17.55
2019-04-24T05:27:04.357Z,17.54
2019-04-24T05:27:21.457Z,17.66
2019-04-24T05:28:34.786Z,17.77
2019-04-24T05:30:53.332Z,18.03
2019-04-24T05:34:16.935Z,18.12
2019-04-24T05:35:58.655Z,18.12
2019-04-24T05:36:49.255Z,18.08
2019-04-24T05:38:01.076Z,17.95
2019-04-24T05:39:57.776Z,17.92
2019-04-24T05:40:46.487Z,18.23
2019-04-24T05:42:03.989Z,18.37
2019-04-24T05:43:02.442Z,18.44
2019-04-24T05:43:49.973Z,18.3
2019-04-24T05:44:39.888Z,18.35
2019-04-24T05:45:50.708Z,18.42
2019-04-24T05:49:00.971Z,18.44
2019-04-24T05:50:57.184Z,18.78
2019-04-24T05:51:51.709Z,18.88
2019-04-24T05:53:10.645Z,18.82
2019-04-24T05:54:02.289Z,18.87
2019-04-24T05:54:41.390Z,18.84
2019-04-24T05:55:54.074Z,18.94
2019-04-24T05:56:56.035Z,18.9
2019-04-24T05:58:02.725Z,18.85
2019-04-24T05:58:45.713Z,18.58
2019-04-24T06:00:52.114Z,18.6
2019-04-24T06:02:09.737Z,18.82
2019-04-24T06:02:42.881Z,19.22
2019-04-24T06:04:04.665Z,19.4
2019-04-24T06:05:46.074Z,19.37
2019-04-24T06:06:47.924Z,19.43
2019-04-24T06:09:42.709Z,19.37
2019-04-24T06:10:39.439Z,19.33
2019-04-24T06:11:50.686Z,19.37
2019-04-24T06:12:35.440Z,19.23
2019-04-24T06:14:28.836Z,19.56
2019-04-24T06:15:28.149Z,19.73
2019-04-24T06:16:25.032Z,19.61
2019-04-24T06:17:21.286Z,19.51
2019-04-24T06:18:25.059Z,19.51
2019-04-24T06:20:49.172Z,19.81
2019-04-24T06:21:22.790Z,19.76
2019-04-24T06:23:19.469Z,19.83
2019-04-24T06:25:19.541Z,19.94
2019-04-24T06:29:58.198Z,20.01
2019-04-24T06:33:57.162Z,20.06
2019-04-24T06:34:54.554Z,19.94
2019-04-24T06:35:56.253Z,19.86
2019-04-24T06:37:43.581Z,20.08
2019-04-24T06:38:46.062Z,20.17
2019-04-24T06:48:19.017Z,20.84
2019-04-24T06:50:48.763Z,21.06
2019-04-24T06:51:23.371Z,21.13
2019-04-24T06:52:22.119Z,21.28
2019-04-24T06:53:02.530Z,21.42
2019-04-24T06:54:18.395Z,21.53
2019-04-24T06:55:23.122Z,21.52
2019-04-24T06:56:09.494Z,21.47
2019-04-24T06:58:52.486Z,21.67
2019-04-24T07:00:56.434Z,21.79
2019-04-24T07:01:52.490Z,21.83
2019-04-24T07:05:02.646Z,22.15
2019-04-24T07:05:54.312Z,22.28
2019-04-24T07:06:42.061Z,22.31
2019-04-24T07:08:49.434Z,22.39
2019-04-24T07:10:52.988Z,22.57
2019-04-24T07:14:37.319Z,22.65
2019-04-24T07:15:46.499Z,22.51
2019-04-24T07:17:08.644Z,22.37
2019-04-24T07:17:38.154Z,22.33
2019-04-24T07:18:29.574Z,22
2019-04-24T07:20:50.679Z,21.79
2019-04-24T07:21:35.606Z,21.88
2019-04-24T07:23:28.633Z,21.94
2019-04-24T07:25:47.570Z,22.2
2019-04-24T07:26:18.414Z,22.18
2019-04-24T07:27:22.235Z,22.2
2019-04-24T07:28:34.886Z,22.28
2019-04-24T07:29:20.611Z,22.2
2019-04-24T07:30:39.720Z,22.18
2019-04-24T07:32:12.669Z,22.17
2019-04-24T07:34:31.186Z,21.96
2019-04-24T07:35:15.834Z,22.12
2019-04-24T07:37:00.891Z,22.33
2019-04-24T07:38:08.383Z,22.3
2019-04-24T07:38:56.649Z,22.39
2019-04-24T07:39:56.190Z,22.49
2019-04-24T07:42:04.217Z,22.55
2019-04-24T07:43:12.478Z,22.55
2019-04-24T07:44:00.581Z,22.54
2019-04-24T07:45:13.141Z,22.55
2019-04-24T07:45:52.824Z,22.42
2019-04-24T07:46:53.840Z,22.39
2019-04-24T07:47:44.195Z,22.33
2019-04-24T07:49:52.237Z,22.49
2019-04-24T07:50:59.152Z,22.42
2019-04-24T07:54:51.330Z,22.54
2019-04-24T07:56:03.461Z,22.51
2019-04-24T07:56:58.020Z,22.49
2019-04-24T07:57:48.836Z,22.54
2019-04-24T07:58:49.066Z,22.54
2019-04-24T08:01:43.442Z,22.62
2019-04-24T08:02:49.533Z,22.54
2019-04-24T08:03:41.376Z,22.43
2019-04-24T08:04:36.623Z,22.46
2019-04-24T08:05:24.485Z,22.42
2019-04-24T08:07:28.395Z,22.43
2019-04-24T08:08:35.053Z,22.45
2019-04-24T08:09:34.950Z,22.33
2019-04-24T08:11:23.655Z,22.15
2019-04-24T08:12:30.028Z,22.21
2019-04-24T08:13:14.835Z,22.35
2019-04-24T08:14:20.405Z,22.33
2019-04-24T08:16:22.818Z,22.55
2019-04-24T08:17:15.515Z,22.67
2019-04-24T08:19:16.049Z,22.54
2019-04-24T08:20:17.597Z,22.7
2019-04-24T08:22:10.653Z,22.52
2019-04-24T08:23:03.043Z,22.6
2019-04-24T08:24:00.201Z,22.35
2019-04-24T08:26:00.260Z,22.35
2019-04-24T08:27:06.972Z,22.57
2019-04-24T08:27:55.210Z,22.55
2019-04-24T08:28:53.726Z,22.65
2019-04-24T08:29:59.780Z,22.88
2019-04-24T08:30:59.833Z,22.9
2019-04-24T08:31:49.714Z,22.85
2019-04-24T08:34:43.912Z,23.19
2019-04-24T08:35:55.947Z,23.28
2019-04-24T08:37:53.640Z,23.36
2019-04-24T08:39:14.985Z,23.43
2019-04-24T08:39:58.302Z,23.4
2019-04-24T08:40:46.143Z,23.23
2019-04-24T08:41:51.386Z,23.28
2019-04-24T08:42:51.163Z,23.17
2019-04-24T08:43:36.301Z,23.22
2019-04-24T08:44:48.058Z,23.02
2019-04-24T08:45:36.777Z,22.9
2019-04-24T08:46:46.007Z,22.88
2019-04-24T08:47:43.750Z,22.95
2019-04-24T08:48:43.933Z,23.05
2019-04-24T08:49:41.534Z,23.12
2019-04-24T08:50:47.460Z,23.13
2019-04-24T08:52:50.684Z,23.1
2019-04-24T08:53:30.373Z,23.15
2019-04-24T08:54:17.498Z,23.17
2019-04-24T08:55:23.919Z,23.25
2019-04-24T08:56:16.151Z,23.25
2019-04-24T08:58:26.144Z,23.2
2019-04-24T09:01:12.941Z,23.2
2019-04-24T09:02:26.546Z,23.22
2019-04-24T09:05:02.931Z,23.2
2019-04-24T09:06:55.195Z,22.86
2019-04-24T09:10:06.820Z,22.94
2019-04-24T09:13:59.551Z,22.7
2019-04-24T09:14:41.869Z,22.75
2019-04-24T09:15:57.597Z,22.77
2019-04-24T09:18:31.139Z,23.17
2019-04-24T09:20:55.476Z,23.04
2019-04-24T09:21:42.414Z,22.9
2019-04-24T09:23:00.794Z,22.92
2019-04-24T09:25:50.411Z,22.75
2019-04-24T09:26:53.392Z,22.91
2019-04-24T09:27:43.518Z,22.95
2019-04-24T09:28:47.984Z,22.83
2019-04-24T09:29:54.054Z,22.82
2019-04-24T09:30:30.333Z,22.51
2019-04-24T09:31:35.778Z,22.45
2019-04-24T09:33:29.927Z,22.28
2019-04-24T09:34:28.053Z,22.3
2019-04-24T09:35:46.109Z,22.31
2019-04-24T09:36:46.771Z,22.2
2019-04-24T09:37:23.169Z,22.18
2019-04-24T09:38:27.708Z,22.3
2019-04-24T09:39:20.488Z,22.14
2019-04-24T09:40:44.494Z,22.21
2019-04-24T09:41:23.782Z,22.51
2019-04-24T09:42:55.482Z,22.55
2019-04-24T09:45:14.579Z,22.7
2019-04-24T09:46:09.174Z,22.72
2019-04-24T09:47:11.943Z,22.72
2019-04-24T09:48:29.894Z,22.83
2019-04-24T09:49:01.814Z,22.9
2019-04-24T09:49:59.795Z,22.92
2019-04-24T09:51:07.439Z,22.97
2019-04-24T09:52:07.955Z,23.04
2019-04-24T09:54:05.349Z,22.9
2019-04-24T09:57:00.516Z,23.12
2019-04-24T09:57:55.953Z,23.09
2019-04-24T09:59:50.419Z,23.01
2019-04-24T10:02:47.891Z,22.85
2019-04-24T10:03:52.631Z,22.73
2019-04-24T10:04:57.456Z,22.7
2019-04-24T10:07:05.228Z,23.01
2019-04-24T10:07:40.575Z,23.04
2019-04-24T10:08:39.565Z,23.07
2019-04-24T10:09:38.262Z,23.23
2019-04-24T10:10:36.750Z,23.38
2019-04-24T10:11:49.880Z,23.46
2019-04-24T10:12:41.493Z,23.42
2019-04-24T10:13:34.799Z,23.47
2019-04-24T10:14:35.654Z,23.43
2019-04-24T10:15:38.851Z,23.53
2019-04-24T10:16:35.528Z,23.46
2019-04-24T10:17:37.224Z,23.42
2019-04-24T10:18:43.351Z,23.5
2019-04-24T10:19:45.692Z,23.36
2019-04-24T10:20:19.512Z,23.43
2019-04-24T10:21:17.532Z,23.38
2019-04-24T10:22:26.357Z,23.51
2019-04-24T10:23:11.855Z,23.42
2019-04-24T10:24:18.992Z,23.5
2019-04-24T10:25:17.249Z,23.36
2019-04-24T10:26:11.664Z,23.46
2019-04-24T10:27:20.403Z,23.38
2019-04-24T10:28:15.471Z,23.48
2019-04-24T10:30:02.829Z,23.47
2019-04-24T10:31:06.578Z,23.4
2019-04-24T10:32:12.138Z,23.54
2019-04-24T10:33:05.279Z,23.55
2019-04-24T10:35:59.594Z,23.83
2019-04-24T10:37:00.916Z,23.85
2019-04-24T10:38:23.017Z,23.75
2019-04-24T10:39:00.860Z,23.72
2019-04-24T10:41:59.666Z,23.73
2019-04-24T10:42:51.329Z,23.73
2019-04-24T10:43:52.084Z,23.55
2019-04-24T10:45:45.781Z,23.69
2019-04-24T10:46:58.293Z,23.76
2019-04-24T10:48:43.964Z,23.68
2019-04-24T10:49:53.979Z,23.73
2019-04-24T10:50:48.840Z,23.43
2019-04-24T10:52:44.989Z,23.47
2019-04-24T10:55:45.364Z,23.68
2019-04-24T10:57:41.529Z,23.73
2019-04-24T10:58:33.973Z,23.53
2019-04-24T10:59:29.842Z,23.4
2019-04-24T11:00:31.540Z,23.47
2019-04-24T11:01:33.817Z,23.65
2019-04-24T11:03:36.625Z,24
2019-04-24T11:04:30.714Z,24.1
2019-04-24T11:06:19.630Z,24.05
2019-04-24T11:07:20.821Z,24.15
2019-04-24T11:09:31.878Z,24.18
2019-04-24T11:10:33.658Z,24.28
2019-04-24T11:11:07.322Z,24.25
2019-04-24T11:12:16.075Z,24.2
2019-04-24T11:14:16.206Z,24.27
2019-04-24T11:15:09.042Z,24.31
2019-04-24T11:18:09.107Z,24.35
2019-04-24T11:19:10.624Z,24.42
2019-04-24T11:19:58.085Z,24.34
2019-04-24T11:21:22.787Z,24.4
2019-04-24T11:22:02.186Z,24.43
2019-04-24T11:24:04.162Z,24.4
2019-04-24T11:25:00.779Z,24.46
2019-04-24T11:27:01.608Z,24.6
2019-04-24T11:28:00.335Z,24.67
2019-04-24T11:28:49.179Z,24.62
2019-04-24T11:29:59.078Z,24.71
2019-04-24T11:30:51.537Z,24.81
2019-04-24T11:31:47.658Z,24.88
2019-04-24T11:32:42.946Z,24.83
2019-04-24T11:34:14.627Z,24.67
2019-04-24T11:35:03.976Z,24.65
2019-04-24T11:36:02.052Z,24.5
2019-04-24T11:36:44.316Z,24.58
2019-04-24T11:39:59.618Z,24.47
2019-04-24T11:40:39.231Z,24.43
2019-04-24T11:42:36.919Z,24.4
2019-04-24T11:43:28.338Z,24.3
2019-04-24T11:46:56.225Z,24.34
2019-04-24T11:47:36.663Z,24.42
2019-04-24T11:48:28.482Z,24.47
2019-04-24T11:50:41.653Z,24.45
2019-04-24T11:52:27.680Z,24.5
2019-04-24T11:53:21.510Z,24.58
2019-04-24T11:54:09.133Z,24.4
2019-04-24T11:55:19.811Z,24.47
2019-04-24T11:56:08.087Z,24.42
2019-04-24T11:57:26.430Z,24.39
2019-04-24T11:58:19.247Z,24.39
2019-04-24T11:58:43.359Z,24.46
2019-04-24T11:59:48.444Z,24.55
2019-04-24T12:00:52.981Z,24.47
2019-04-24T12:02:11.502Z,24.4
2019-04-24T12:02:57.619Z,24.4
2019-04-24T12:04:05.332Z,24.35
2019-04-24T12:06:10.587Z,24.25
2019-04-24T12:06:54.446Z,24.3
2019-04-24T12:09:50.646Z,24.24
2019-04-24T12:11:18.133Z,24.34
2019-04-24T12:11:58.228Z,24.3
2019-04-24T12:12:55.170Z,24.37
2019-04-24T12:14:46.098Z,24.46
2019-04-24T12:15:50.224Z,24.6
2019-04-24T12:16:44.776Z,24.47
2019-04-24T12:17:49.658Z,24.55
2019-04-24T12:18:51.789Z,24.65
2019-04-24T12:19:43.933Z,24.57
2019-04-24T12:20:46.120Z,24.65
2019-04-24T12:21:49.843Z,24.67
2019-04-24T12:22:34.336Z,24.9
2019-04-24T12:24:24.954Z,24.9
2019-04-24T12:25:40.939Z,24.62
2019-04-24T12:27:36.263Z,24.58
2019-04-24T12:29:17.387Z,24.6
2019-04-24T12:30:26.197Z,24.67
2019-04-24T12:31:17.457Z,24.76
2019-04-24T12:32:15.546Z,24.88
2019-04-24T12:33:18.164Z,24.84
2019-04-24T12:34:13.722Z,24.78
2019-04-24T12:36:11.898Z,24.69
2019-04-24T12:37:11.951Z,24.49
2019-04-24T12:38:12.096Z,24.73
2019-04-24T12:40:15.599Z,24.83
2019-04-24T12:42:19.771Z,24.88
2019-04-24T12:43:06.627Z,24.95
2019-04-24T12:44:09.989Z,24.98
2019-04-24T12:45:01.637Z,24.88
2019-04-24T12:46:08.030Z,24.93
2019-04-24T12:47:10.174Z,24.93
2019-04-24T12:47:58.150Z,24.91
2019-04-24T12:49:09.058Z,24.8
2019-04-24T12:50:06.464Z,24.95
2019-04-24T12:50:55.773Z,24.8
2019-04-24T12:52:52.953Z,24.8
2019-04-24T12:53:55.179Z,24.78
2019-04-24T12:57:02.859Z,24.8
2019-04-24T12:59:43.802Z,24.76
2019-04-24T13:00:52.608Z,24.81
2019-04-24T13:01:41.609Z,24.83
2019-04-24T13:02:41.907Z,24.8
2019-04-24T13:03:47.570Z,24.81
2019-04-24T13:04:37.238Z,24.83
2019-04-24T13:06:16.291Z,24.81
2019-04-24T13:07:41.655Z,24.68
2019-04-24T13:08:46.079Z,24.81
2019-04-24T13:10:37.729Z,24.81
2019-04-24T13:11:27.796Z,24.76
2019-04-24T13:12:46.118Z,24.71
2019-04-24T13:13:38.244Z,24.68
2019-04-24T13:14:27.585Z,24.57
2019-04-24T13:15:22.885Z,24.58
2019-04-24T13:16:19.448Z,24.46
2019-04-24T13:18:14.831Z,24.4
2019-04-24T13:19:50.492Z,24.22
2019-04-24T13:20:49.511Z,24.31
2019-04-24T13:21:50.633Z,24.35
2019-04-24T13:22:55.689Z,24.32
2019-04-24T13:23:56.631Z,24.35
2019-04-24T13:25:01.364Z,24.35
2019-04-24T13:26:04.469Z,24.32
2019-04-24T13:27:12.436Z,24.47
2019-04-24T13:28:19.951Z,24.57
2019-04-24T13:29:13.075Z,24.73
2019-04-24T13:31:11.802Z,24.95
2019-04-24T13:32:16.769Z,25.08
2019-04-24T13:33:59.587Z,25
2019-04-24T13:35:05.958Z,25.17
2019-04-24T13:36:03.598Z,25.21
2019-04-24T13:37:02.483Z,25.18
2019-04-24T13:38:03.200Z,25.38
2019-04-24T13:39:01.887Z,25.52
2019-04-24T13:39:52.245Z,25.55
2019-04-24T13:40:53.244Z,25.64
2019-04-24T13:44:54.116Z,25.45
2019-04-24T13:45:52.599Z,25.33
2019-04-24T13:46:41.548Z,25.46
2019-04-24T13:47:48.227Z,25.51
2019-04-24T13:49:45.414Z,25.72
2019-04-24T13:50:37.599Z,25.72
2019-04-24T13:51:39.449Z,25.64
2019-04-24T13:54:39.398Z,25.54
2019-04-24T13:55:33.120Z,25.69
2019-04-24T13:56:29.770Z,25.75
2019-04-24T13:57:28.679Z,25.67
2019-04-24T13:58:28.816Z,25.67
2019-04-24T13:59:24.853Z,25.69
2019-04-24T14:00:20.237Z,25.69
2019-04-24T14:02:39.642Z,25.62
2019-04-24T14:04:15.363Z,25.69
2019-04-24T14:05:23.317Z,25.62
2019-04-24T14:06:27.023Z,25.67
2019-04-24T14:07:25.794Z,25.51
2019-04-24T14:08:27.320Z,25.67
2019-04-24T14:10:33.096Z,25.6
2019-04-24T14:12:45.265Z,25.55
2019-04-24T14:15:20.912Z,25.62
2019-04-24T14:16:06.140Z,25.79
2019-04-24T14:17:00.424Z,25.8
2019-04-24T14:19:11.656Z,25.88
2019-04-24T14:20:07.281Z,25.91
2019-04-24T14:20:56.047Z,25.99
2019-04-24T14:21:55.447Z,26.01
2019-04-24T14:23:06.592Z,26.07
2019-04-24T14:25:07.356Z,26.06
2019-04-24T14:25:55.610Z,25.99
2019-04-24T14:26:47.413Z,25.91
2019-04-24T14:27:54.552Z,25.85
2019-04-24T14:28:48.495Z,25.88
2019-04-24T14:29:47.943Z,25.9
2019-04-24T14:32:44.162Z,25.97
2019-04-24T14:34:29.709Z,25.8
2019-04-24T14:35:42.135Z,25.77
2019-04-24T14:37:31.752Z,25.91
2019-04-24T14:38:38.346Z,25.83
2019-04-24T14:39:26.913Z,25.73
2019-04-24T14:42:30.487Z,25.76
2019-04-24T14:45:32.830Z,25.79
2019-04-24T14:46:26.721Z,25.94
2019-04-24T14:47:19.875Z,25.92
2019-04-24T14:48:17.910Z,25.92
2019-04-24T14:50:24.187Z,25.95
2019-04-24T14:51:17.300Z,25.92
2019-04-24T14:52:21.663Z,25.85
2019-04-24T14:53:09.070Z,25.9
2019-04-24T14:55:15.739Z,25.88
2019-04-24T14:56:06.002Z,25.94
2019-04-24T14:57:06.792Z,25.91
2019-04-24T14:58:03.420Z,25.91
2019-04-24T14:59:09.321Z,25.88
2019-04-24T15:00:10.647Z,25.91
2019-04-24T15:01:02.704Z,25.88
2019-04-24T15:02:07.823Z,25.91
2019-04-24T15:03:09.359Z,25.73
2019-04-24T15:03:59.340Z,25.8
2019-04-24T15:05:03.282Z,25.85
2019-04-24T15:06:06.423Z,25.85
2019-04-24T15:07:04.355Z,25.92
2019-04-24T15:08:02.257Z,25.83
2019-04-24T15:09:00.780Z,25.9
2019-04-24T15:09:50.501Z,25.9
2019-04-24T15:10:52.882Z,26.06
2019-04-24T15:12:06.407Z,25.99
2019-04-24T15:14:45.061Z,25.92
2019-04-24T15:15:48.417Z,26.05
2019-04-24T15:16:40.248Z,26.1
2019-04-24T15:18:44.398Z,25.99
2019-04-24T15:19:41.349Z,25.95
2019-04-24T15:21:30.446Z,25.91
2019-04-24T15:22:35.604Z,25.77
2019-04-24T15:25:35.889Z,25.65
2019-04-24T15:26:24.038Z,25.54
2019-04-24T15:27:22.701Z,25.51
2019-04-24T15:28:18.800Z,25.51
2019-04-24T15:30:21.054Z,25.32
2019-04-24T15:31:12.363Z,25.35
2019-04-24T15:32:24.696Z,25.38
2019-04-24T15:33:15.727Z,25.33
2019-04-24T15:34:15.886Z,25.4
2019-04-24T15:35:16.878Z,25.33
2019-04-24T15:36:13.805Z,25.3
2019-04-24T15:37:18.198Z,25.33
2019-04-24T15:38:08.737Z,25.3
2019-04-24T15:39:12.094Z,25.35
2019-04-24T15:40:24.390Z,25.4
2019-04-24T15:41:14.746Z,25.35
2019-04-24T15:42:06.901Z,25.32
2019-04-24T15:43:57.627Z,25.35
2019-04-24T15:45:01.654Z,25.35
2019-04-24T15:45:56.344Z,25.28
2019-04-24T15:47:03.082Z,25.32
2019-04-24T15:48:05.416Z,25.15
2019-04-24T15:48:54.573Z,24.84
2019-04-24T15:49:57.978Z,24.71
2019-04-24T15:50:56.916Z,24.49
2019-04-24T15:51:32.355Z,24.13
2019-04-24T15:52:21.100Z,24.03
2019-04-24T15:53:19.715Z,23.88
2019-04-24T15:54:18.288Z,23.78
2019-04-24T15:55:17.107Z,23.75
2019-04-24T15:56:15.680Z,23.57
2019-04-24T15:57:14.258Z,23.5
2019-04-24T15:58:21.782Z,23.12
2019-04-24T15:59:25.781Z,22.58
2019-04-24T16:00:37.699Z,22.42
2019-04-24T16:03:37.287Z,21.74
2019-04-24T16:04:33.308Z,21.5
2019-04-24T16:05:03.820Z,21.34
2019-04-24T16:06:02.903Z,21.34
2019-04-24T16:07:00.931Z,21.21
2019-04-24T16:07:59.605Z,21.07
2019-04-24T16:08:58.862Z,20.97
2019-04-24T16:09:56.793Z,20.85
2019-04-24T16:10:55.653Z,20.84
2019-04-24T16:11:54.279Z,20.84
2019-04-24T16:12:52.861Z,20.79
2019-04-24T16:13:58.481Z,20.92
2019-04-24T16:15:11.565Z,20.84
2019-04-24T16:16:12.795Z,20.89
2019-04-24T16:17:09.103Z,20.85
2019-04-24T16:19:31.366Z,20.66
2019-04-24T16:21:13.482Z,20.91
2019-04-24T16:23:09.710Z,20.59
2019-04-24T16:24:34.454Z,20.58
2019-04-24T16:27:17.180Z,20.57
2019-04-24T16:29:02.861Z,20.59
2019-04-24T16:30:04.357Z,20.43
2019-04-24T16:30:57.007Z,20.36
2019-04-24T16:32:56.937Z,20.06
2019-04-24T16:33:52.959Z,20.06
2019-04-24T16:35:16.943Z,20.13
2019-04-24T16:36:11.419Z,19.84
2019-04-24T16:37:50.290Z,19.78
2019-04-24T16:38:56.216Z,19.71
2019-04-24T16:39:50.143Z,19.65
2019-04-24T16:40:49.496Z,19.68
2019-04-24T16:43:39.516Z,19.54
2019-04-24T16:44:38.309Z,19.43
2019-04-24T16:45:35.534Z,19.39
2019-04-24T16:48:01.538Z,19.54
2019-04-24T16:50:00.210Z,19.4
2019-04-24T16:51:31.531Z,19.41
2019-04-24T16:52:19.656Z,19.33
2019-04-24T16:57:17.621Z,19.14
2019-04-24T16:59:14.745Z,19.25
2019-04-24T17:01:33.016Z,19.18
2019-04-24T17:04:28.653Z,19.16
2019-04-24T17:06:19.118Z,19.02
2019-04-24T17:09:05.310Z,19
2019-04-24T17:11:08.602Z,19.06
2019-04-24T17:12:01.498Z,19
2019-04-24T17:13:02.827Z,18.85
2019-04-24T17:14:16.565Z,18.9
2019-04-24T17:15:05.657Z,18.9
2019-04-24T17:15:58.569Z,18.73
2019-04-24T17:17:13.028Z,18.84
2019-04-24T17:17:57.304Z,18.82
2019-04-24T17:19:00.455Z,18.72
2019-04-24T17:19:51.414Z,18.76
2019-04-24T17:21:00.333Z,18.81
2019-04-24T17:22:47.042Z,18.62
2019-04-24T17:23:41.472Z,18.75
2019-04-24T17:24:45.329Z,18.7
2019-04-24T17:25:46.917Z,18.75
2019-04-24T17:26:36.942Z,18.72
2019-04-24T17:32:34.790Z,18.26
2019-04-24T17:34:28.948Z,18.32
2019-04-24T17:35:28.424Z,18.21
2019-04-24T17:36:17.009Z,18.02
2019-04-24T17:36:55.787Z,18.03
2019-04-24T17:37:54.300Z,18.1
2019-04-24T17:38:53.113Z,18.05
2019-04-24T17:39:51.834Z,17.96
2019-04-24T17:40:51.278Z,17.75
2019-04-24T17:41:55.218Z,17.96
2019-04-24T17:43:06.414Z,17.99
2019-04-24T17:44:27.936Z,17.96
2019-04-24T17:45:11.751Z,17.96
2019-04-24T17:46:10.658Z,17.92
2019-04-24T17:47:18.177Z,17.97
2019-04-24T17:49:21.667Z,17.77
2019-04-24T17:50:16.404Z,17.68
2019-04-24T17:51:11.546Z,17.63
2019-04-24T17:52:14.309Z,17.72
2019-04-24T17:53:05.739Z,17.55
2019-04-24T17:54:01.648Z,17.59
2019-04-24T17:54:54.789Z,17.52
2019-04-24T17:55:53.129Z,17.55
2019-04-24T17:58:28.181Z,17.38
2019-04-24T17:59:25.055Z,17.19
2019-04-24T18:00:23.698Z,17.23
2019-04-24T18:01:22.292Z,17.34
2019-04-24T18:02:21.251Z,17.26
2019-04-24T18:03:19.589Z,17.34
2019-04-24T18:04:18.142Z,17.43
2019-04-24T18:05:17.045Z,17.43
2019-04-24T18:06:15.750Z,17.21
2019-04-24T18:07:14.568Z,17.03
2019-04-24T18:09:54.471Z,17.07
2019-04-24T18:10:53.101Z,16.98
2019-04-24T18:11:52.432Z,16.75
2019-04-24T18:39:06.926Z,16.56
2019-04-24T18:40:05.666Z,16.52
2019-04-24T18:41:04.345Z,16.41
2019-04-24T18:42:03.912Z,16.39